sensor_id;sensor_type;location;lat;lon;timestamp;P1;durP1;ratioP1;P2;durP2;ratioP2
26050;SDS011;13825;53.496;10.020;2022-10-16T00:00:30;3.40;;;2.83;;
26050;SDS011;13825;53.496;10.020;2022-10-16T00:02:59;4.17;;;2.93;;
26050;SDS011;13825;53.496;10.020;2022-10-16T00:05:25;4.07;;;3.07;;
26050;SDS011;13825;53.496;10.020;2022-10-16T00:07:52;3.93;;;2.57;;
26050;SDS011;13825;53.496;10.020;2022-10-16T00:10:19;3.70;;;2.40;;
26050;SDS011;13825;53.496;10.020;2022-10-16T00:12:46;4.60;;;2.20;;
26050;SDS011;13825;53.496;10.020;2022-10-16T00:15:13;3.33;;;2.40;;
26050;SDS011;13825;53.496;10.020;2022-10-16T00:17:43;3.73;;;2.07;;
26050;SDS011;13825;53.496;10.020;2022-10-16T00:20:12;5.43;;;2.47;;
26050;SDS011;13825;53.496;10.020;2022-10-16T00:22:52;5.23;;;2.37;;
26050;SDS011;13825;53.496;10.020;2022-10-16T00:25:19;2.50;;;1.90;;
26050;SDS011;13825;53.496;10.020;2022-10-16T00:27:46;3.73;;;1.83;;
26050;SDS011;13825;53.496;10.020;2022-10-16T00:30:13;3.80;;;2.07;;
26050;SDS011;13825;53.496;10.020;2022-10-16T00:32:40;2.77;;;1.87;;
26050;SDS011;13825;53.496;10.020;2022-10-16T00:35:07;5.20;;;2.30;;
26050;SDS011;13825;53.496;10.020;2022-10-16T00:37:35;2.50;;;1.93;;
26050;SDS011;13825;53.496;10.020;2022-10-16T00:40:02;3.63;;;2.37;;
26050;SDS011;13825;53.496;10.020;2022-10-16T00:42:30;3.67;;;2.30;;
26050;SDS011;13825;53.496;10.020;2022-10-16T00:44:57;3.53;;;2.30;;
26050;SDS011;13825;53.496;10.020;2022-10-16T00:47:24;2.60;;;1.93;;
26050;SDS011;13825;53.496;10.020;2022-10-16T00:49:55;3.70;;;2.40;;
26050;SDS011;13825;53.496;10.020;2022-10-16T00:52:27;3.30;;;2.20;;
26050;SDS011;13825;53.496;10.020;2022-10-16T00:54:55;2.97;;;2.13;;
26050;SDS011;13825;53.496;10.020;2022-10-16T00:57:23;2.70;;;2.33;;
26050;SDS011;13825;53.496;10.020;2022-10-16T00:59:50;4.97;;;2.27;;
26050;SDS011;13825;53.496;10.020;2022-10-16T01:02:18;3.03;;;2.30;;
26050;SDS011;13825;53.496;10.020;2022-10-16T01:04:46;4.43;;;2.87;;
26050;SDS011;13825;53.496;10.020;2022-10-16T01:07:18;5.03;;;2.73;;
26050;SDS011;13825;53.496;10.020;2022-10-16T01:09:57;5.23;;;2.50;;
26050;SDS011;13825;53.496;10.020;2022-10-16T01:12:38;5.03;;;2.70;;
26050;SDS011;13825;53.496;10.020;2022-10-16T01:15:09;3.57;;;2.60;;
26050;SDS011;13825;53.496;10.020;2022-10-16T01:17:41;3.63;;;3.00;;
26050;SDS011;13825;53.496;10.020;2022-10-16T01:20:13;3.27;;;2.77;;
26050;SDS011;13825;53.496;10.020;2022-10-16T01:22:58;5.83;;;2.90;;
26050;SDS011;13825;53.496;10.020;2022-10-16T01:25:36;5.70;;;3.03;;
26050;SDS011;13825;53.496;10.020;2022-10-16T01:28:12;3.50;;;2.60;;
26050;SDS011;13825;53.496;10.020;2022-10-16T01:30:42;4.50;;;2.63;;
26050;SDS011;13825;53.496;10.020;2022-10-16T01:33:13;4.03;;;2.37;;
26050;SDS011;13825;53.496;10.020;2022-10-16T01:35:45;4.97;;;2.50;;
26050;SDS011;13825;53.496;10.020;2022-10-16T01:38:14;4.40;;;2.40;;
26050;SDS011;13825;53.496;10.020;2022-10-16T01:40:45;3.17;;;2.40;;
26050;SDS011;13825;53.496;10.020;2022-10-16T01:43:19;3.30;;;1.83;;
26050;SDS011;13825;53.496;10.020;2022-10-16T01:45:49;4.50;;;2.67;;
26050;SDS011;13825;53.496;10.020;2022-10-16T01:48:17;4.83;;;2.40;;
26050;SDS011;13825;53.496;10.020;2022-10-16T01:50:50;6.07;;;2.23;;
26050;SDS011;13825;53.496;10.020;2022-10-16T01:53:23;3.57;;;2.20;;
26050;SDS011;13825;53.496;10.020;2022-10-16T01:55:52;3.40;;;2.10;;
26050;SDS011;13825;53.496;10.020;2022-10-16T01:58:23;3.63;;;2.10;;
26050;SDS011;13825;53.496;10.020;2022-10-16T02:00:51;4.17;;;2.23;;
26050;SDS011;13825;53.496;10.020;2022-10-16T02:03:20;5.33;;;2.30;;
26050;SDS011;13825;53.496;10.020;2022-10-16T02:05:49;2.90;;;2.23;;
26050;SDS011;13825;53.496;10.020;2022-10-16T02:08:19;2.30;;;2.07;;
26050;SDS011;13825;53.496;10.020;2022-10-16T02:10:47;2.03;;;1.83;;
26050;SDS011;13825;53.496;10.020;2022-10-16T02:13:15;3.70;;;2.03;;
26050;SDS011;13825;53.496;10.020;2022-10-16T02:15:47;3.03;;;2.10;;
26050;SDS011;13825;53.496;10.020;2022-10-16T02:18:14;3.23;;;2.00;;
26050;SDS011;13825;53.496;10.020;2022-10-16T02:20:43;3.73;;;2.00;;
26050;SDS011;13825;53.496;10.020;2022-10-16T02:23:18;2.67;;;2.03;;
26050;SDS011;13825;53.496;10.020;2022-10-16T02:25:50;2.27;;;2.03;;
26050;SDS011;13825;53.496;10.020;2022-10-16T02:28:22;3.93;;;2.20;;
26050;SDS011;13825;53.496;10.020;2022-10-16T02:30:55;2.10;;;1.87;;
26050;SDS011;13825;53.496;10.020;2022-10-16T02:33:25;3.33;;;1.63;;
26050;SDS011;13825;53.496;10.020;2022-10-16T02:35:53;2.97;;;1.73;;
26050;SDS011;13825;53.496;10.020;2022-10-16T02:38:21;2.83;;;1.80;;
26050;SDS011;13825;53.496;10.020;2022-10-16T02:40:49;1.67;;;1.57;;
26050;SDS011;13825;53.496;10.020;2022-10-16T02:43:16;3.60;;;1.97;;
26050;SDS011;13825;53.496;10.020;2022-10-16T02:45:43;2.83;;;1.90;;
26050;SDS011;13825;53.496;10.020;2022-10-16T02:48:12;1.67;;;1.47;;
26050;SDS011;13825;53.496;10.020;2022-10-16T02:50:39;2.20;;;1.80;;
26050;SDS011;13825;53.496;10.020;2022-10-16T02:53:05;2.40;;;1.70;;
26050;SDS011;13825;53.496;10.020;2022-10-16T02:55:46;2.50;;;1.57;;
26050;SDS011;13825;53.496;10.020;2022-10-16T02:58:13;2.37;;;1.40;;
26050;SDS011;13825;53.496;10.020;2022-10-16T03:00:39;2.17;;;1.40;;
26050;SDS011;13825;53.496;10.020;2022-10-16T03:03:07;2.53;;;1.83;;
26050;SDS011;13825;53.496;10.020;2022-10-16T03:05:35;3.63;;;1.60;;
26050;SDS011;13825;53.496;10.020;2022-10-16T03:08:02;3.47;;;1.70;;
26050;SDS011;13825;53.496;10.020;2022-10-16T03:10:29;2.93;;;1.67;;
26050;SDS011;13825;53.496;10.020;2022-10-16T03:12:57;2.93;;;1.57;;
26050;SDS011;13825;53.496;10.020;2022-10-16T03:15:24;3.27;;;1.40;;
26050;SDS011;13825;53.496;10.020;2022-10-16T03:17:53;1.50;;;1.37;;
26050;SDS011;13825;53.496;10.020;2022-10-16T03:20:21;3.00;;;1.70;;
26050;SDS011;13825;53.496;10.020;2022-10-16T03:22:50;3.33;;;1.60;;
26050;SDS011;13825;53.496;10.020;2022-10-16T03:25:16;4.17;;;1.80;;
26050;SDS011;13825;53.496;10.020;2022-10-16T03:27:43;2.30;;;1.73;;
26050;SDS011;13825;53.496;10.020;2022-10-16T03:30:11;4.60;;;1.60;;
26050;SDS011;13825;53.496;10.020;2022-10-16T03:32:38;3.27;;;1.60;;
26050;SDS011;13825;53.496;10.020;2022-10-16T03:35:05;3.20;;;1.90;;
26050;SDS011;13825;53.496;10.020;2022-10-16T03:37:32;3.40;;;1.73;;
26050;SDS011;13825;53.496;10.020;2022-10-16T03:40:01;1.57;;;1.47;;
26050;SDS011;13825;53.496;10.020;2022-10-16T03:42:28;2.27;;;1.73;;
26050;SDS011;13825;53.496;10.020;2022-10-16T03:44:55;2.27;;;1.57;;
26050;SDS011;13825;53.496;10.020;2022-10-16T03:47:22;3.33;;;1.57;;
26050;SDS011;13825;53.496;10.020;2022-10-16T03:49:49;2.83;;;1.53;;
26050;SDS011;13825;53.496;10.020;2022-10-16T03:52:16;2.60;;;1.93;;
26050;SDS011;13825;53.496;10.020;2022-10-16T03:54:42;3.17;;;1.70;;
26050;SDS011;13825;53.496;10.020;2022-10-16T03:57:11;2.53;;;1.70;;
26050;SDS011;13825;53.496;10.020;2022-10-16T03:59:38;2.60;;;1.70;;
26050;SDS011;13825;53.496;10.020;2022-10-16T04:02:05;1.80;;;1.60;;
26050;SDS011;13825;53.496;10.020;2022-10-16T04:04:31;2.77;;;1.50;;
26050;SDS011;13825;53.496;10.020;2022-10-16T04:06:58;4.60;;;1.70;;
26050;SDS011;13825;53.496;10.020;2022-10-16T04:09:30;1.83;;;1.60;;
26050;SDS011;13825;53.496;10.020;2022-10-16T04:11:57;3.03;;;2.27;;
26050;SDS011;13825;53.496;10.020;2022-10-16T04:14:25;4.37;;;1.33;;
26050;SDS011;13825;53.496;10.020;2022-10-16T04:16:52;4.17;;;1.60;;
26050;SDS011;13825;53.496;10.020;2022-10-16T04:19:19;4.27;;;1.50;;
26050;SDS011;13825;53.496;10.020;2022-10-16T04:21:46;2.70;;;1.50;;
26050;SDS011;13825;53.496;10.020;2022-10-16T04:24:16;3.93;;;1.93;;
26050;SDS011;13825;53.496;10.020;2022-10-16T04:26:43;1.53;;;1.30;;
26050;SDS011;13825;53.496;10.020;2022-10-16T04:29:10;2.40;;;1.60;;
26050;SDS011;13825;53.496;10.020;2022-10-16T04:31:38;2.17;;;1.50;;
26050;SDS011;13825;53.496;10.020;2022-10-16T04:34:05;3.23;;;2.00;;
26050;SDS011;13825;53.496;10.020;2022-10-16T04:36:32;3.00;;;1.67;;
26050;SDS011;13825;53.496;10.020;2022-10-16T04:38:59;1.70;;;1.60;;
26050;SDS011;13825;53.496;10.020;2022-10-16T04:41:27;2.73;;;2.07;;
26050;SDS011;13825;53.496;10.020;2022-10-16T04:43:54;3.23;;;1.40;;
26050;SDS011;13825;53.496;10.020;2022-10-16T04:46:20;2.37;;;1.70;;
26050;SDS011;13825;53.496;10.020;2022-10-16T04:48:49;3.80;;;1.60;;
26050;SDS011;13825;53.496;10.020;2022-10-16T04:51:15;3.43;;;1.73;;
26050;SDS011;13825;53.496;10.020;2022-10-16T04:53:43;5.23;;;1.80;;
26050;SDS011;13825;53.496;10.020;2022-10-16T04:56:10;3.60;;;2.03;;
26050;SDS011;13825;53.496;10.020;2022-10-16T04:58:37;3.20;;;1.70;;
26050;SDS011;13825;53.496;10.020;2022-10-16T05:01:04;3.00;;;2.00;;
26050;SDS011;13825;53.496;10.020;2022-10-16T05:03:31;3.30;;;2.00;;
26050;SDS011;13825;53.496;10.020;2022-10-16T05:06:00;6.50;;;2.03;;
26050;SDS011;13825;53.496;10.020;2022-10-16T05:08:36;4.70;;;1.90;;
26050;SDS011;13825;53.496;10.020;2022-10-16T05:11:12;2.57;;;1.93;;
26050;SDS011;13825;53.496;10.020;2022-10-16T05:13:41;4.97;;;2.13;;
26050;SDS011;13825;53.496;10.020;2022-10-16T05:16:12;4.13;;;2.03;;
26050;SDS011;13825;53.496;10.020;2022-10-16T05:18:52;2.07;;;1.87;;
26050;SDS011;13825;53.496;10.020;2022-10-16T05:21:33;4.07;;;2.00;;
26050;SDS011;13825;53.496;10.020;2022-10-16T05:24:12;7.20;;;2.83;;
26050;SDS011;13825;53.496;10.020;2022-10-16T05:26:46;4.53;;;2.10;;
26050;SDS011;13825;53.496;10.020;2022-10-16T05:29:20;4.07;;;2.23;;
26050;SDS011;13825;53.496;10.020;2022-10-16T05:31:50;3.67;;;1.90;;
26050;SDS011;13825;53.496;10.020;2022-10-16T05:34:20;2.90;;;2.13;;
26050;SDS011;13825;53.496;10.020;2022-10-16T05:36:49;3.43;;;1.73;;
26050;SDS011;13825;53.496;10.020;2022-10-16T05:44:21;5.10;;;2.00;;
26050;SDS011;13825;53.496;10.020;2022-10-16T05:46:48;2.17;;;1.90;;
26050;SDS011;13825;53.496;10.020;2022-10-16T05:49:15;3.80;;;1.77;;
26050;SDS011;13825;53.496;10.020;2022-10-16T05:51:52;2.50;;;1.73;;
26050;SDS011;13825;53.496;10.020;2022-10-16T05:54:19;3.43;;;2.10;;
26050;SDS011;13825;53.496;10.020;2022-10-16T05:56:46;1.83;;;1.43;;
26050;SDS011;13825;53.496;10.020;2022-10-16T05:59:13;3.73;;;1.93;;
26050;SDS011;13825;53.496;10.020;2022-10-16T06:01:40;3.03;;;2.00;;
26050;SDS011;13825;53.496;10.020;2022-10-16T06:04:07;2.73;;;1.83;;
26050;SDS011;13825;53.496;10.020;2022-10-16T06:06:35;2.17;;;1.83;;
26050;SDS011;13825;53.496;10.020;2022-10-16T06:09:04;2.03;;;1.90;;
26050;SDS011;13825;53.496;10.020;2022-10-16T06:11:31;3.90;;;2.43;;
26050;SDS011;13825;53.496;10.020;2022-10-16T06:13:59;3.50;;;1.90;;
26050;SDS011;13825;53.496;10.020;2022-10-16T06:16:31;3.37;;;2.20;;
26050;SDS011;13825;53.496;10.020;2022-10-16T06:18:58;4.63;;;2.00;;
26050;SDS011;13825;53.496;10.020;2022-10-16T06:21:25;3.23;;;2.00;;
26050;SDS011;13825;53.496;10.020;2022-10-16T06:23:53;2.90;;;2.30;;
26050;SDS011;13825;53.496;10.020;2022-10-16T06:26:23;3.23;;;2.27;;
26050;SDS011;13825;53.496;10.020;2022-10-16T06:28:51;3.83;;;2.40;;
26050;SDS011;13825;53.496;10.020;2022-10-16T06:31:20;2.77;;;2.27;;
26050;SDS011;13825;53.496;10.020;2022-10-16T06:33:50;6.53;;;2.27;;
26050;SDS011;13825;53.496;10.020;2022-10-16T06:36:17;3.90;;;2.03;;
26050;SDS011;13825;53.496;10.020;2022-10-16T06:38:45;9.03;;;2.40;;
26050;SDS011;13825;53.496;10.020;2022-10-16T06:41:12;4.10;;;2.50;;
26050;SDS011;13825;53.496;10.020;2022-10-16T06:43:42;3.43;;;2.57;;
26050;SDS011;13825;53.496;10.020;2022-10-16T06:46:10;3.00;;;2.37;;
26050;SDS011;13825;53.496;10.020;2022-10-16T06:48:38;3.27;;;2.40;;
26050;SDS011;13825;53.496;10.020;2022-10-16T06:51:05;5.53;;;2.60;;
26050;SDS011;13825;53.496;10.020;2022-10-16T06:53:34;3.13;;;2.33;;
26050;SDS011;13825;53.496;10.020;2022-10-16T06:56:08;3.60;;;2.60;;
26050;SDS011;13825;53.496;10.020;2022-10-16T06:58:37;6.47;;;2.70;;
26050;SDS011;13825;53.496;10.020;2022-10-16T07:01:05;3.97;;;2.60;;
26050;SDS011;13825;53.496;10.020;2022-10-16T07:03:33;4.53;;;2.30;;
26050;SDS011;13825;53.496;10.020;2022-10-16T07:06:02;3.27;;;2.70;;
26050;SDS011;13825;53.496;10.020;2022-10-16T07:08:30;4.53;;;2.63;;
26050;SDS011;13825;53.496;10.020;2022-10-16T07:10:58;5.30;;;2.83;;
26050;SDS011;13825;53.496;10.020;2022-10-16T07:13:26;6.00;;;3.20;;
26050;SDS011;13825;53.496;10.020;2022-10-16T07:15:56;5.37;;;2.70;;
26050;SDS011;13825;53.496;10.020;2022-10-16T07:18:24;5.10;;;2.90;;
26050;SDS011;13825;53.496;10.020;2022-10-16T07:20:51;4.07;;;2.70;;
26050;SDS011;13825;53.496;10.020;2022-10-16T07:23:18;2.87;;;2.37;;
26050;SDS011;13825;53.496;10.020;2022-10-16T07:25:45;4.13;;;2.57;;
26050;SDS011;13825;53.496;10.020;2022-10-16T07:28:19;3.87;;;2.40;;
26050;SDS011;13825;53.496;10.020;2022-10-16T07:30:45;4.60;;;2.47;;
26050;SDS011;13825;53.496;10.020;2022-10-16T07:33:12;4.93;;;2.40;;
26050;SDS011;13825;53.496;10.020;2022-10-16T07:35:48;4.07;;;2.53;;
26050;SDS011;13825;53.496;10.020;2022-10-16T07:38:15;4.33;;;2.27;;
26050;SDS011;13825;53.496;10.020;2022-10-16T07:40:42;5.30;;;2.63;;
26050;SDS011;13825;53.496;10.020;2022-10-16T07:43:09;4.03;;;2.10;;
26050;SDS011;13825;53.496;10.020;2022-10-16T07:45:36;4.10;;;2.70;;
26050;SDS011;13825;53.496;10.020;2022-10-16T07:48:03;4.00;;;2.80;;
26050;SDS011;13825;53.496;10.020;2022-10-16T07:50:30;2.90;;;2.33;;
26050;SDS011;13825;53.496;10.020;2022-10-16T07:53:00;3.73;;;2.53;;
26050;SDS011;13825;53.496;10.020;2022-10-16T07:55:27;5.10;;;2.70;;
26050;SDS011;13825;53.496;10.020;2022-10-16T07:57:54;4.67;;;2.30;;
26050;SDS011;13825;53.496;10.020;2022-10-16T08:00:24;3.30;;;2.40;;
26050;SDS011;13825;53.496;10.020;2022-10-16T08:02:51;6.20;;;2.37;;
26050;SDS011;13825;53.496;10.020;2022-10-16T08:05:17;3.43;;;2.10;;
26050;SDS011;13825;53.496;10.020;2022-10-16T08:07:47;4.13;;;2.20;;
26050;SDS011;13825;53.496;10.020;2022-10-16T08:10:16;2.50;;;2.00;;
26050;SDS011;13825;53.496;10.020;2022-10-16T08:12:44;3.90;;;2.20;;
26050;SDS011;13825;53.496;10.020;2022-10-16T08:15:11;3.37;;;2.00;;
26050;SDS011;13825;53.496;10.020;2022-10-16T08:17:38;2.87;;;2.23;;
26050;SDS011;13825;53.496;10.020;2022-10-16T08:20:05;2.40;;;1.90;;
26050;SDS011;13825;53.496;10.020;2022-10-16T08:22:32;3.17;;;1.80;;
26050;SDS011;13825;53.496;10.020;2022-10-16T08:24:59;2.50;;;1.80;;
26050;SDS011;13825;53.496;10.020;2022-10-16T08:27:31;2.13;;;1.60;;
26050;SDS011;13825;53.496;10.020;2022-10-16T08:29:59;2.63;;;2.10;;
26050;SDS011;13825;53.496;10.020;2022-10-16T08:32:26;4.67;;;2.27;;
26050;SDS011;13825;53.496;10.020;2022-10-16T08:34:52;4.20;;;2.00;;
26050;SDS011;13825;53.496;10.020;2022-10-16T08:37:19;2.20;;;1.90;;
26050;SDS011;13825;53.496;10.020;2022-10-16T08:39:46;2.13;;;1.80;;
26050;SDS011;13825;53.496;10.020;2022-10-16T08:42:16;2.30;;;1.77;;
26050;SDS011;13825;53.496;10.020;2022-10-16T08:45:08;2.90;;;1.60;;
26050;SDS011;13825;53.496;10.020;2022-10-16T08:47:55;3.30;;;1.67;;
26050;SDS011;13825;53.496;10.020;2022-10-16T08:50:32;2.87;;;1.87;;
26050;SDS011;13825;53.496;10.020;2022-10-16T08:53:04;2.13;;;1.70;;
26050;SDS011;13825;53.496;10.020;2022-10-16T08:55:41;1.83;;;1.63;;
26050;SDS011;13825;53.496;10.020;2022-10-16T08:58:12;3.20;;;2.10;;
26050;SDS011;13825;53.496;10.020;2022-10-16T09:00:42;2.97;;;1.73;;
26050;SDS011;13825;53.496;10.020;2022-10-16T09:03:14;1.87;;;1.50;;
26050;SDS011;13825;53.496;10.020;2022-10-16T09:06:00;1.93;;;1.70;;
26050;SDS011;13825;53.496;10.020;2022-10-16T09:08:46;2.67;;;1.50;;
26050;SDS011;13825;53.496;10.020;2022-10-16T09:11:20;2.60;;;1.73;;
26050;SDS011;13825;53.496;10.020;2022-10-16T09:13:58;2.63;;;1.90;;
26050;SDS011;13825;53.496;10.020;2022-10-16T09:16:30;2.43;;;1.83;;
26050;SDS011;13825;53.496;10.020;2022-10-16T09:19:02;1.97;;;1.30;;
26050;SDS011;13825;53.496;10.020;2022-10-16T09:21:37;2.77;;;1.40;;
26050;SDS011;13825;53.496;10.020;2022-10-16T09:24:09;2.30;;;1.17;;
26050;SDS011;13825;53.496;10.020;2022-10-16T09:26:39;2.27;;;1.40;;
26050;SDS011;13825;53.496;10.020;2022-10-16T09:29:06;1.80;;;1.30;;
26050;SDS011;13825;53.496;10.020;2022-10-16T09:31:36;2.00;;;1.27;;
26050;SDS011;13825;53.496;10.020;2022-10-16T09:34:04;1.97;;;1.20;;
26050;SDS011;13825;53.496;10.020;2022-10-16T09:36:36;3.00;;;1.27;;
26050;SDS011;13825;53.496;10.020;2022-10-16T09:39:08;1.77;;;1.43;;
26050;SDS011;13825;53.496;10.020;2022-10-16T09:41:37;3.37;;;1.40;;
26050;SDS011;13825;53.496;10.020;2022-10-16T09:44:15;2.13;;;1.30;;
26050;SDS011;13825;53.496;10.020;2022-10-16T09:46:46;2.83;;;1.43;;
26050;SDS011;13825;53.496;10.020;2022-10-16T09:49:21;2.37;;;1.50;;
26050;SDS011;13825;53.496;10.020;2022-10-16T09:51:49;1.40;;;1.30;;
26050;SDS011;13825;53.496;10.020;2022-10-16T09:54:19;2.40;;;1.43;;
26050;SDS011;13825;53.496;10.020;2022-10-16T09:56:47;4.40;;;1.60;;
26050;SDS011;13825;53.496;10.020;2022-10-16T09:59:17;2.33;;;1.20;;
26050;SDS011;13825;53.496;10.020;2022-10-16T10:01:47;2.63;;;1.20;;
26050;SDS011;13825;53.496;10.020;2022-10-16T10:04:16;3.50;;;1.43;;
26050;SDS011;13825;53.496;10.020;2022-10-16T10:06:44;1.83;;;1.07;;
26050;SDS011;13825;53.496;10.020;2022-10-16T10:09:16;1.37;;;1.17;;
26050;SDS011;13825;53.496;10.020;2022-10-16T10:11:49;2.83;;;1.30;;
26050;SDS011;13825;53.496;10.020;2022-10-16T10:14:19;1.80;;;1.23;;
26050;SDS011;13825;53.496;10.020;2022-10-16T10:17:10;3.17;;;1.17;;
26050;SDS011;13825;53.496;10.020;2022-10-16T10:19:40;1.80;;;1.10;;
26050;SDS011;13825;53.496;10.020;2022-10-16T10:22:17;3.20;;;1.80;;
26050;SDS011;13825;53.496;10.020;2022-10-16T10:24:54;3.20;;;1.90;;
26050;SDS011;13825;53.496;10.020;2022-10-16T10:27:22;4.53;;;2.50;;
26050;SDS011;13825;53.496;10.020;2022-10-16T10:29:59;5.03;;;2.00;;
26050;SDS011;13825;53.496;10.020;2022-10-16T10:32:33;1.67;;;1.10;;
26050;SDS011;13825;53.496;10.020;2022-10-16T10:35:11;2.30;;;1.20;;
26050;SDS011;13825;53.496;10.020;2022-10-16T10:37:46;1.90;;;1.00;;
26050;SDS011;13825;53.496;10.020;2022-10-16T10:40:23;1.67;;;1.03;;
26050;SDS011;13825;53.496;10.020;2022-10-16T10:43:01;1.70;;;1.30;;
26050;SDS011;13825;53.496;10.020;2022-10-16T10:45:36;2.23;;;1.40;;
26050;SDS011;13825;53.496;10.020;2022-10-16T10:48:22;4.63;;;1.40;;
26050;SDS011;13825;53.496;10.020;2022-10-16T10:51:13;2.57;;;1.10;;
26050;SDS011;13825;53.496;10.020;2022-10-16T10:53:46;4.70;;;1.30;;
26050;SDS011;13825;53.496;10.020;2022-10-16T10:56:40;4.87;;;1.40;;
26050;SDS011;13825;53.496;10.020;2022-10-16T10:59:18;1.67;;;1.10;;
26050;SDS011;13825;53.496;10.020;2022-10-16T11:02:09;4.20;;;1.20;;
26050;SDS011;13825;53.496;10.020;2022-10-16T11:07:48;3.97;;;1.30;;
26050;SDS011;13825;53.496;10.020;2022-10-16T11:10:19;2.87;;;1.10;;
26050;SDS011;13825;53.496;10.020;2022-10-16T11:12:49;2.30;;;1.17;;
26050;SDS011;13825;53.496;10.020;2022-10-16T11:15:21;4.50;;;1.30;;
26050;SDS011;13825;53.496;10.020;2022-10-16T11:17:51;3.13;;;1.10;;
26050;SDS011;13825;53.496;10.020;2022-10-16T11:20:22;4.03;;;1.27;;
26050;SDS011;13825;53.496;10.020;2022-10-16T11:22:54;2.63;;;1.17;;
26050;SDS011;13825;53.496;10.020;2022-10-16T11:25:24;1.40;;;0.93;;
26050;SDS011;13825;53.496;10.020;2022-10-16T11:27:55;0.93;;;0.87;;
26050;SDS011;13825;53.496;10.020;2022-10-16T11:30:28;7.63;;;0.90;;
26050;SDS011;13825;53.496;10.020;2022-10-16T11:33:00;1.33;;;0.53;;
26050;SDS011;13825;53.496;10.020;2022-10-16T11:35:46;2.80;;;1.10;;
26050;SDS011;13825;53.496;10.020;2022-10-16T11:38:21;1.77;;;0.97;;
26050;SDS011;13825;53.496;10.020;2022-10-16T11:40:56;2.27;;;0.90;;
26050;SDS011;13825;53.496;10.020;2022-10-16T11:43:28;0.80;;;0.80;;
26050;SDS011;13825;53.496;10.020;2022-10-16T11:46:02;2.43;;;1.20;;
26050;SDS011;13825;53.496;10.020;2022-10-16T11:48:35;2.73;;;1.00;;
26050;SDS011;13825;53.496;10.020;2022-10-16T11:51:11;1.40;;;0.90;;
26050;SDS011;13825;53.496;10.020;2022-10-16T11:53:49;1.87;;;1.00;;
26050;SDS011;13825;53.496;10.020;2022-10-16T11:56:21;1.20;;;1.00;;
26050;SDS011;13825;53.496;10.020;2022-10-16T11:58:53;1.00;;;0.70;;
26050;SDS011;13825;53.496;10.020;2022-10-16T12:01:26;2.53;;;0.90;;
26050;SDS011;13825;53.496;10.020;2022-10-16T12:04:01;2.30;;;0.97;;
26050;SDS011;13825;53.496;10.020;2022-10-16T12:06:37;1.73;;;1.00;;
26050;SDS011;13825;53.496;10.020;2022-10-16T12:09:10;2.43;;;1.30;;
26050;SDS011;13825;53.496;10.020;2022-10-16T12:11:53;1.87;;;1.30;;
26050;SDS011;13825;53.496;10.020;2022-10-16T12:19:57;3.63;;;1.40;;
26050;SDS011;13825;53.496;10.020;2022-10-16T12:22:26;1.43;;;1.00;;
26050;SDS011;13825;53.496;10.020;2022-10-16T12:24:56;3.27;;;1.30;;
26050;SDS011;13825;53.496;10.020;2022-10-16T12:27:25;4.03;;;1.57;;
26050;SDS011;13825;53.496;10.020;2022-10-16T12:29:55;3.13;;;1.77;;
26050;SDS011;13825;53.496;10.020;2022-10-16T12:32:28;4.50;;;2.23;;
26050;SDS011;13825;53.496;10.020;2022-10-16T12:34:57;2.13;;;1.30;;
26050;SDS011;13825;53.496;10.020;2022-10-16T12:37:25;3.60;;;1.40;;
26050;SDS011;13825;53.496;10.020;2022-10-16T12:39:56;2.23;;;1.20;;
26050;SDS011;13825;53.496;10.020;2022-10-16T12:42:31;4.43;;;1.27;;
26050;SDS011;13825;53.496;10.020;2022-10-16T12:45:00;2.97;;;1.20;;
26050;SDS011;13825;53.496;10.020;2022-10-16T12:47:37;2.03;;;1.40;;
26050;SDS011;13825;53.496;10.020;2022-10-16T12:50:23;4.93;;;2.20;;
26050;SDS011;13825;53.496;10.020;2022-10-16T12:52:52;3.43;;;2.40;;
26050;SDS011;13825;53.496;10.020;2022-10-16T12:55:21;3.87;;;2.30;;
26050;SDS011;13825;53.496;10.020;2022-10-16T12:57:59;3.50;;;2.00;;
26050;SDS011;13825;53.496;10.020;2022-10-16T13:00:34;3.10;;;1.27;;
26050;SDS011;13825;53.496;10.020;2022-10-16T13:06:17;2.37;;;1.13;;
26050;SDS011;13825;53.496;10.020;2022-10-16T13:08:58;1.47;;;1.00;;
26050;SDS011;13825;53.496;10.020;2022-10-16T13:11:43;1.80;;;1.03;;
26050;SDS011;13825;53.496;10.020;2022-10-16T13:14:31;2.03;;;1.00;;
26050;SDS011;13825;53.496;10.020;2022-10-16T13:17:16;1.60;;;0.97;;
26050;SDS011;13825;53.496;10.020;2022-10-16T13:19:51;2.73;;;0.90;;
26050;SDS011;13825;53.496;10.020;2022-10-16T13:22:27;2.57;;;1.00;;
26050;SDS011;13825;53.496;10.020;2022-10-16T13:25:02;3.27;;;1.17;;
26050;SDS011;13825;53.496;10.020;2022-10-16T13:27:48;4.17;;;1.07;;
26050;SDS011;13825;53.496;10.020;2022-10-16T13:30:21;0.83;;;0.80;;
26050;SDS011;13825;53.496;10.020;2022-10-16T13:32:52;1.50;;;1.00;;
26050;SDS011;13825;53.496;10.020;2022-10-16T13:35:25;1.57;;;1.07;;
26050;SDS011;13825;53.496;10.020;2022-10-16T13:38:03;1.50;;;0.90;;
26050;SDS011;13825;53.496;10.020;2022-10-16T13:40:47;5.20;;;1.23;;
26050;SDS011;13825;53.496;10.020;2022-10-16T13:43:17;2.27;;;1.30;;
26050;SDS011;13825;53.496;10.020;2022-10-16T13:45:52;2.83;;;1.47;;
26050;SDS011;13825;53.496;10.020;2022-10-16T13:48:23;0.97;;;0.90;;
26050;SDS011;13825;53.496;10.020;2022-10-16T13:51:00;1.87;;;1.23;;
26050;SDS011;13825;53.496;10.020;2022-10-16T13:53:30;2.97;;;1.30;;
26050;SDS011;13825;53.496;10.020;2022-10-16T13:55:58;1.53;;;1.20;;
26050;SDS011;13825;53.496;10.020;2022-10-16T13:58:27;2.53;;;1.07;;
26050;SDS011;13825;53.496;10.020;2022-10-16T14:00:55;2.77;;;1.10;;
26050;SDS011;13825;53.496;10.020;2022-10-16T14:03:23;2.23;;;1.03;;
26050;SDS011;13825;53.496;10.020;2022-10-16T14:05:52;3.20;;;1.33;;
26050;SDS011;13825;53.496;10.020;2022-10-16T14:08:20;2.30;;;0.90;;
26050;SDS011;13825;53.496;10.020;2022-10-16T14:10:48;1.50;;;1.00;;
26050;SDS011;13825;53.496;10.020;2022-10-16T14:13:18;2.00;;;0.90;;
26050;SDS011;13825;53.496;10.020;2022-10-16T14:15:50;1.60;;;1.00;;
26050;SDS011;13825;53.496;10.020;2022-10-16T14:18:20;2.53;;;1.03;;
26050;SDS011;13825;53.496;10.020;2022-10-16T14:20:49;2.90;;;1.03;;
26050;SDS011;13825;53.496;10.020;2022-10-16T14:23:19;1.03;;;0.80;;
26050;SDS011;13825;53.496;10.020;2022-10-16T14:25:48;3.37;;;1.10;;
26050;SDS011;13825;53.496;10.020;2022-10-16T14:28:16;2.27;;;1.00;;
26050;SDS011;13825;53.496;10.020;2022-10-16T14:30:50;2.90;;;1.30;;
26050;SDS011;13825;53.496;10.020;2022-10-16T14:33:20;2.23;;;1.00;;
26050;SDS011;13825;53.496;10.020;2022-10-16T14:35:57;2.10;;;1.30;;
26050;SDS011;13825;53.496;10.020;2022-10-16T14:38:27;2.50;;;1.30;;
26050;SDS011;13825;53.496;10.020;2022-10-16T14:40:54;3.20;;;1.00;;
26050;SDS011;13825;53.496;10.020;2022-10-16T14:43:26;2.93;;;1.17;;
26050;SDS011;13825;53.496;10.020;2022-10-16T14:46:03;2.73;;;1.63;;
26050;SDS011;13825;53.496;10.020;2022-10-16T14:48:32;4.40;;;1.40;;
26050;SDS011;13825;53.496;10.020;2022-10-16T14:51:00;1.87;;;0.90;;
26050;SDS011;13825;53.496;10.020;2022-10-16T14:53:26;4.03;;;1.73;;
26050;SDS011;13825;53.496;10.020;2022-10-16T14:55:53;0.90;;;0.90;;
26050;SDS011;13825;53.496;10.020;2022-10-16T14:58:20;2.23;;;1.07;;
26050;SDS011;13825;53.496;10.020;2022-10-16T15:00:49;3.90;;;1.37;;
26050;SDS011;13825;53.496;10.020;2022-10-16T15:03:17;2.13;;;1.13;;
26050;SDS011;13825;53.496;10.020;2022-10-16T15:05:44;3.03;;;0.90;;
26050;SDS011;13825;53.496;10.020;2022-10-16T15:08:11;3.87;;;1.23;;
26050;SDS011;13825;53.496;10.020;2022-10-16T15:10:39;1.40;;;1.00;;